Time;durP1;ratioP1;P1;durP2;ratioP2;P2;SDS_P1;SDS_P2;PMS_P1;PMS_P2;Temp;Humidity;BMP_temperature;BMP_pressure;BME280_temperature;BME280_humidity;BME280_pressure;Samples;Min_cycle;Max_cycle;Signal;HPM_P1;HPM_P2
2022/03/26 00:03:11;;;;;;;22.23;9.90;;;;;;;11.33;33.66;101412.06;5003084;23;20041;-89
2022/03/26 00:08:19;;;;;;;17.67;9.65;;;;;;;11.49;32.51;101414.94;5017410;23;20043;-87
2022/03/26 00:11:09;;;;;;;16.08;10.02;;;;;;;11.35;32.76;101421.56;4964125;29;20055;-89
2022/03/26 00:14:20;;;;;;;22.70;9.80;;;;;;;11.27;32.92;101423.22;4991468;23;20073;-87
2022/03/26 00:16:52;;;;;;;17.70;9.02;;;;;;;11.35;32.80;101426.00;4981675;23;20046;-89
2022/03/26 00:19:46;;;;;;;15.88;9.77;;;;;;;11.31;32.77;101429.94;4982306;23;20055;-88
2022/03/26 00:25:21;;;;;;;17.55;9.65;;;;;;;11.58;32.59;101435.28;1816128;23;20093;-88
2022/03/26 00:28:07;;;;;;;20.35;9.38;;;;;;;11.52;32.76;101433.22;4989272;28;20359;-86
2022/03/26 00:30:37;;;;;;;19.63;9.98;;;;;;;11.60;32.33;101428.00;4979333;28;20051;-88
2022/03/26 00:33:06;;;;;;;13.48;9.02;;;;;;;11.64;32.06;101437.34;4984998;28;20054;-89
2022/03/26 00:35:42;;;;;;;17.55;8.98;;;;;;;11.64;32.04;101434.69;4973542;28;20035;-87
2022/03/26 00:38:23;;;;;;;15.85;9.45;;;;;;;11.60;32.06;101435.97;4987469;28;20382;-87
2022/03/26 00:40:49;;;;;;;15.98;9.25;;;;;;;11.62;32.17;101441.97;4951662;28;20053;-86
2022/03/26 00:43:14;;;;;;;17.48;8.73;;;;;;;11.35;32.59;101432.16;4983615;28;20070;-88
2022/03/26 00:45:46;;;;;;;18.17;9.45;;;;;;;11.30;32.61;101438.91;4983218;28;20031;-90
2022/03/26 00:48:12;;;;;;;17.00;10.15;;;;;;;11.30;32.83;101444.22;4966084;28;20077;-88
2022/03/26 00:50:44;;;;;;;15.77;9.27;;;;;;;10.88;33.42;101443.72;4960750;28;20054;-89
2022/03/26 00:53:10;;;;;;;16.33;9.48;;;;;;;10.50;34.26;101438.44;4980273;28;20041;-85
2022/03/26 00:55:36;;;;;;;19.50;9.85;;;;;;;10.46;34.53;101437.88;4963754;28;20099;-86
2022/03/26 00:58:02;;;;;;;14.35;9.15;;;;;;;10.72;34.21;101438.16;4965603;28;20039;-87
2022/03/26 01:00:28;;;;;;;16.20;9.35;;;;;;;10.61;34.51;101441.78;4980892;28;20398;-87
2022/03/26 01:02:57;;;;;;;22.83;10.38;;;;;;;10.26;35.03;101438.84;4978809;28;20045;-85
2022/03/26 01:05:23;;;;;;;16.73;9.43;;;;;;;10.13;35.14;101435.56;4979547;28;20035;-86
2022/03/26 01:07:48;;;;;;;21.02;9.13;;;;;;;9.98;35.69;101436.94;4980030;28;20058;-84
2022/03/26 01:10:14;;;;;;;19.27;9.35;;;;;;;9.98;35.47;101431.63;4963347;28;20039;-85
2022/03/26 01:12:39;;;;;;;19.50;9.13;;;;;;;10.02;35.71;101430.38;4963126;28;20031;-89
2022/03/26 01:15:06;;;;;;;24.98;10.18;;;;;;;9.94;35.91;101430.25;4961695;28;20130;-87
2022/03/26 01:17:32;;;;;;;23.15;9.65;;;;;;;10.07;35.75;101430.84;4947225;28;20039;-89
2022/03/26 01:19:59;;;;;;;16.20;10.32;;;;;;;10.19;35.20;101435.91;4983274;28;20031;-89
2022/03/26 01:22:28;;;;;;;16.50;9.68;;;;;;;10.26;34.97;101434.38;4984911;28;20066;-87
2022/03/26 01:24:53;;;;;;;17.73;10.05;;;;;;;10.36;34.78;101431.75;4987234;28;20070;-89
2022/03/26 01:27:19;;;;;;;19.05;9.80;;;;;;;10.04;35.63;101431.91;4985378;28;20059;-87
2022/03/26 01:29:47;;;;;;;20.75;9.15;;;;;;;9.88;36.13;101434.25;4951769;28;20098;-86
2022/03/26 01:32:13;;;;;;;19.25;9.70;;;;;;;9.97;36.05;101429.97;4964579;28;20035;-89
2022/03/26 01:34:44;;;;;;;22.67;10.10;;;;;;;9.73;36.48;101432.97;4987336;28;20258;-90
2022/03/26 01:37:10;;;;;;;17.33;10.25;;;;;;;9.72;36.41;101431.28;4953747;28;20074;-89
2022/03/26 01:39:38;;;;;;;18.58;10.18;;;;;;;9.90;36.06;101436.78;4968493;28;20042;-86
2022/03/26 01:42:08;;;;;;;16.67;10.00;;;;;;;9.75;36.55;101436.31;4986357;28;20035;-92
2022/03/26 01:44:38;;;;;;;17.00;9.55;;;;;;;9.55;36.96;101451.28;4976489;28;20058;-85
2022/03/26 01:47:04;;;;;;;20.85;10.05;;;;;;;9.43;37.09;101439.13;4975696;28;20072;-85
2022/03/26 01:49:34;;;;;;;16.85;9.77;;;;;;;9.24;37.65;101437.22;4971787;28;20063;-89
2022/03/26 01:52:12;;;;;;;22.50;10.02;;;;;;;9.12;37.64;101443.53;4972376;28;20142;-87
2022/03/26 01:54:47;;;;;;;19.58;10.00;;;;;;;9.34;37.38;101442.56;4991026;28;20127;-88
2022/03/26 01:57:15;;;;;;;17.85;9.30;;;;;;;9.64;36.72;101437.28;4990888;28;20062;-87
2022/03/26 01:59:42;;;;;;;18.30;9.55;;;;;;;9.80;36.63;101437.59;4989882;28;20027;-85
2022/03/26 02:02:16;;;;;;;17.13;9.27;;;;;;;9.75;36.57;101437.16;4968908;28;20051;-86
2022/03/26 02:04:42;;;;;;;16.60;10.00;;;;;;;9.91;36.28;101435.81;4984570;28;20394;-88
2022/03/26 02:07:08;;;;;;;18.67;9.60;;;;;;;9.69;36.51;101437.69;4985534;28;20027;-85
2022/03/26 02:09:40;;;;;;;18.55;9.40;;;;;;;9.54;36.55;101438.19;4970859;28;20093;-87
2022/03/26 02:12:28;;;;;;;14.70;8.75;;;;;;;9.64;36.71;101439.91;4988325;28;20039;-88
2022/03/26 02:15:00;;;;;;;15.45;9.60;;;;;;;9.88;36.28;101436.09;4991477;28;20038;-88
2022/03/26 02:17:35;;;;;;;10.87;6.47;;;;;;;9.70;36.24;101431.44;4983185;28;20050;-87
2022/03/26 02:20:17;;;;;;;20.50;9.35;;;;;;;9.53;37.08;101442.66;4990921;28;20435;-87
2022/03/26 02:22:50;;;;;;;16.50;9.77;;;;;;;9.55;36.69;101435.41;4991972;28;20031;-88
2022/03/26 02:25:17;;;;;;;15.80;9.35;;;;;;;9.60;36.88;101442.94;4985480;28;20053;-89
2022/03/26 02:27:43;;;;;;;21.60;9.35;;;;;;;9.61;36.71;101434.06;4989409;28;20448;-90
2022/03/26 02:30:14;;;;;;;21.90;9.55;;;;;;;9.71;36.40;101435.72;4988536;28;20049;-85
2022/03/26 02:32:40;;;;;;;17.63;9.48;;;;;;;9.85;36.36;101435.38;4996493;23;20047;-90
2022/03/26 02:35:20;;;;;;;16.58;9.05;;;;;;;9.92;36.04;101433.03;4970647;28;20066;-86
2022/03/26 02:37:46;;;;;;;17.63;9.20;;;;;;;10.05;35.63;101433.59;4990922;28;20039;-88
2022/03/26 02:40:15;;;;;;;19.13;9.52;;;;;;;10.03;36.03;101435.56;4990098;28;20103;-86
2022/03/26 02:42:46;;;;;;;16.80;8.90;;;;;;;10.19;35.68;101435.91;4991880;28;20070;-87
2022/03/26 02:45:32;;;;;;;16.77;9.68;;;;;;;10.21;35.83;101438.41;4978810;28;20095;-88
2022/03/26 02:48:07;;;;;;;17.30;9.68;;;;;;;10.16;36.01;101432.69;4994658;28;20047;-85
2022/03/26 02:50:33;;;;;;;20.02;10.88;;;;;;;9.98;36.52;101436.94;4975138;28;20054;-85
2022/03/26 02:53:04;;;;;;;16.48;9.50;;;;;;;9.96;36.67;101436.22;4970991;28;20035;-87
2022/03/26 02:55:30;;;;;;;17.90;9.57;;;;;;;10.01;36.23;101441.97;4984748;28;20070;-88
2022/03/26 02:57:56;;;;;;;17.05;9.50;;;;;;;10.02;35.81;101446.28;4968020;28;20037;-85
2022/03/26 03:00:21;;;;;;;16.15;9.23;;;;;;;10.09;35.79;101450.06;4982630;28;20110;-85
2022/03/26 03:02:47;;;;;;;19.65;9.98;;;;;;;9.59;36.76;101434.16;4982396;28;20050;-88
2022/03/26 03:05:13;;;;;;;17.80;9.68;;;;;;;9.27;37.72;101441.41;4979541;28;20035;-86
2022/03/26 03:07:40;;;;;;;16.50;9.77;;;;;;;9.24;37.87;101446.97;4983135;28;20045;-87
2022/03/26 03:10:06;;;;;;;18.33;10.40;;;;;;;9.23;37.66;101442.63;4969106;28;20134;-88
2022/03/26 03:12:35;;;;;;;17.25;9.82;;;;;;;9.22;37.99;101446.25;4970580;28;20056;-86
2022/03/26 03:15:00;;;;;;;16.23;10.13;;;;;;;9.33;37.97;101446.16;4988389;28;20049;-85
2022/03/26 03:17:26;;;;;;;18.30;9.40;;;;;;;9.61;37.22;101444.63;4984754;28;20035;-86
2022/03/26 03:19:52;;;;;;;23.08;10.55;;;;;;;9.69;37.31;101442.13;4965975;28;20037;-87
2022/03/26 03:22:18;;;;;;;18.05;10.48;;;;;;;9.51;37.10;101446.41;4965232;28;20046;-86
2022/03/26 03:24:43;;;;;;;16.00;9.93;;;;;;;9.18;37.82;101444.84;4965707;28;20473;-86
2022/03/26 03:27:09;;;;;;;22.83;9.77;;;;;;;9.28;38.25;101440.41;4981218;28;20038;-88
2022/03/26 03:29:35;;;;;;;21.15;10.15;;;;;;;9.22;38.15;101447.09;4965077;28;20035;-87
2022/03/26 03:32:01;;;;;;;21.63;11.05;;;;;;;9.15;37.85;101447.72;4983022;28;20035;-87
2022/03/26 03:34:26;;;;;;;19.48;10.63;;;;;;;8.92;38.98;101454.97;4976319;28;20041;-85
2022/03/26 03:36:52;;;;;;;21.48;10.40;;;;;;;8.82;39.25;101444.31;4990857;28;20035;-85
2022/03/26 03:39:18;;;;;;;19.10;10.38;;;;;;;8.90;38.85;101442.84;4988383;28;20058;-86
2022/03/26 03:41:46;;;;;;;20.02;11.13;;;;;;;8.75;39.14;101448.44;4987154;28;20047;-86
2022/03/26 03:44:18;;;;;;;20.88;11.00;;;;;;;8.88;39.06;101443.00;4986430;28;20045;-87
2022/03/26 03:46:48;;;;;;;19.10;10.75;;;;;;;8.86;39.34;101446.69;4991051;28;20081;-85
2022/03/26 03:49:15;;;;;;;16.80;10.02;;;;;;;9.00;39.03;101449.03;4982035;28;20051;-87
2022/03/26 03:51:46;;;;;;;19.08;10.35;;;;;;;8.80;39.16;101453.34;4986519;28;20117;-88
2022/03/26 03:54:12;;;;;;;18.00;10.40;;;;;;;8.74;39.33;101451.22;4987730;28;20074;-87
2022/03/26 03:57:02;;;;;;;17.85;10.65;;;;;;;8.49;40.13;101449.75;4972886;28;20042;-86
2022/03/26 04:00:07;;;;;;;19.65;10.35;;;;;;;8.37;40.40;101444.66;4986965;28;20125;-85
2022/03/26 04:02:47;;;;;;;21.75;10.65;;;;;;;8.33;40.40;101449.34;4970209;28;20104;-85
2022/03/26 04:05:25;;;;;;;20.83;10.68;;;;;;;8.33;40.71;101441.41;4997204;28;20035;-85
2022/03/26 04:08:25;;;;;;;16.98;10.13;;;;;;;8.46;40.19;101457.94;5003597;23;20066;-86
2022/03/26 04:13:50;;;;;;;19.90;10.43;;;;;;;8.36;40.55;101457.00;1333756;26;20129;-86
2022/03/26 04:16:45;;;;;;;18.98;10.63;;;;;;;8.31;40.56;101451.28;4990450;28;20053;-87
2022/03/26 04:19:40;;;;;;;18.95;10.52;;;;;;;8.16;40.98;101457.75;4988482;28;20135;-85
2022/03/26 04:22:15;;;;;;;18.55;11.00;;;;;;;8.24;40.62;101458.81;4993068;28;20057;-86
2022/03/26 04:24:50;;;;;;;24.65;10.40;;;;;;;8.27;40.79;101453.28;4996885;28;20025;-86
2022/03/26 04:27:52;;;;;;;18.35;10.52;;;;;;;8.14;40.81;101462.31;4993029;28;20082;-86
2022/03/26 04:30:24;;;;;;;19.15;10.27;;;;;;;8.10;41.06;101456.44;4992148;28;20035;-88
2022/03/26 04:32:59;;;;;;;21.52;10.38;;;;;;;8.06;40.91;101462.09;4991442;28;20057;-89
2022/03/26 04:35:28;;;;;;;20.13;11.35;;;;;;;8.02;40.97;101460.69;4989606;28;20046;-87
2022/03/26 04:38:03;;;;;;;24.25;10.88;;;;;;;8.03;40.91;101463.19;4987674;28;20458;-88
2022/03/26 04:40:55;;;;;;;;;;;;;;;8.04;41.20;101467.50;4996959;23;20069;-90
2022/03/26 04:43:26;;;;;;;20.80;10.23;;;;;;;8.12;41.04;101467.72;4988006;28;19929;-90
2022/03/26 04:46:39;;;;;;;17.83;10.32;;;;;;;8.02;41.25;101471.25;4996138;28;20018;-89
2022/03/26 04:49:55;;;;;;;17.13;10.63;;;;;;;8.34;40.66;101472.16;4941604;29;20053;-93
2022/03/26 04:53:06;;;;;;;24.35;11.13;;;;;;;8.35;40.60;101476.47;4955711;29;20047;-87
2022/03/26 04:55:55;;;;;;;17.60;10.93;;;;;;;8.37;40.54;101477.19;4952482;29;20056;-88
2022/03/26 04:58:29;;;;;;;18.88;10.20;;;;;;;8.38;40.36;101478.88;4987044;23;20100;-87
2022/03/26 05:04:20;;;;;;;18.15;10.43;;;;;;;8.40;40.55;101491.94;3775865;26;20058;-89
2022/03/26 05:10:08;;;;;;;19.25;10.43;;;;;;;8.50;40.50;101491.06;4933855;29;20040;-90
2022/03/26 05:13:00;;;;;;;23.27;11.02;;;;;;;8.37;40.87;101494.81;4972453;23;20047;-88
2022/03/26 05:15:28;;;;;;;19.30;10.77;;;;;;;8.38;41.21;101489.44;4992035;28;20066;-90
2022/03/26 05:17:58;;;;;;;18.80;10.82;;;;;;;8.62;40.66;101497.13;4974897;28;20055;-88
2022/03/26 05:20:25;;;;;;;20.20;11.77;;;;;;;8.87;40.06;101501.25;4990181;28;20454;-90
2022/03/26 05:23:20;;;;;;;20.63;11.75;;;;;;;8.81;39.79;101506.09;4978475;28;20038;-86
2022/03/26 05:25:58;;;;;;;24.88;11.32;;;;;;;8.53;40.65;101493.47;4978350;28;20406;-89
2022/03/26 05:28:24;;;;;;;;;;;;;;;8.66;40.95;101507.34;4973109;28;20509;-90
2022/03/26 05:30:50;;;;;;;17.38;10.77;;;;;;;8.99;40.13;101516.09;4975479;28;19922;-87
2022/03/26 05:33:25;;;;;;;18.50;10.70;;;;;;;9.31;39.23;101511.59;4962646;28;20056;-90
2022/03/26 05:35:51;;;;;;;25.80;10.82;;;;;;;9.48;38.57;101513.63;4957130;28;20038;-90
2022/03/26 05:38:17;;;;;;;21.88;11.00;;;;;;;9.48;38.50;101524.22;4972968;28;20031;-90
2022/03/26 05:40:46;;;;;;;19.88;10.57;;;;;;;9.49;38.70;101523.25;4974034;28;20037;-89
2022/03/26 05:43:17;;;;;;;22.30;11.27;;;;;;;9.42;38.14;101524.75;4987364;28;20104;-87
2022/03/26 05:45:43;;;;;;;19.05;10.07;;;;;;;9.08;39.22;101528.56;4994365;28;20041;-89
2022/03/26 05:48:09;;;;;;;22.83;10.85;;;;;;;9.45;38.80;101528.94;4973317;28;20039;-85
2022/03/26 05:50:38;;;;;;;22.70;10.88;;;;;;;9.55;38.99;101530.66;4962023;28;20046;-89
2022/03/26 05:53:17;;;;;;;22.10;10.50;;;;;;;9.63;38.50;101541.44;4955476;28;20150;-88
2022/03/26 05:55:43;;;;;;;20.90;11.27;;;;;;;10.19;37.50;101536.56;4980582;28;20043;-88
2022/03/26 05:58:10;;;;;;;27.55;10.35;;;;;;;10.74;36.08;101542.25;4966024;28;20042;-88
2022/03/26 06:00:37;;;;;;;24.50;10.65;;;;;;;11.33;35.66;101537.63;4962283;28;20047;-85
2022/03/26 06:03:02;;;;;;;27.80;9.73;;;;;;;11.81;34.82;101550.81;4978019;28;20039;-87
2022/03/26 06:05:28;;;;;;;18.55;10.65;;;;;;;11.07;35.23;101543.66;4961168;28;20034;-86
2022/03/26 06:07:53;;;;;;;22.45;10.80;;;;;;;10.33;36.88;101548.59;4961799;28;20047;-87
2022/03/26 06:10:19;;;;;;;21.70;10.93;;;;;;;9.93;37.84;101556.50;4946644;28;20066;-87
2022/03/26 06:13:04;;;;;;;23.95;10.73;;;;;;;9.92;37.89;101553.97;4987730;28;20101;-87
2022/03/26 06:15:31;;;;;;;25.73;11.35;;;;;;;10.03;37.78;101556.53;4946811;28;20113;-85
2022/03/26 06:17:56;;;;;;;20.65;10.52;;;;;;;9.93;37.79;101555.66;4946465;28;20550;-88
2022/03/26 06:20:22;;;;;;;19.10;10.98;;;;;;;10.27;37.05;101559.75;4970657;28;20066;-89
2022/03/26 06:22:48;;;;;;;25.33;11.20;;;;;;;10.13;37.42;101566.22;4982240;28;20054;-85
2022/03/26 06:25:15;;;;;;;26.60;9.98;;;;;;;10.81;35.92;101565.41;4947257;28;20396;-87
2022/03/26 06:27:40;;;;;;;22.80;9.80;;;;;;;11.57;35.12;101568.16;4962723;28;20034;-85
2022/03/26 06:30:07;;;;;;;20.15;10.13;;;;;;;12.19;33.76;101564.94;4976456;28;20383;-85
2022/03/26 06:32:35;;;;;;;29.63;10.35;;;;;;;13.07;31.99;101565.06;4978075;28;20117;-88
2022/03/26 06:35:01;;;;;;;25.15;10.55;;;;;;;13.23;32.18;101572.38;4963005;28;20205;-86
2022/03/26 06:37:26;;;;;;;23.10;10.30;;;;;;;13.13;32.09;101568.94;4982654;28;20093;-90
2022/03/26 06:39:58;;;;;;;20.15;9.82;;;;;;;12.43;33.41;101562.56;4984561;28;20041;-89
2022/03/26 06:42:25;;;;;;;23.63;7.82;;;;;;;12.84;33.00;101571.81;4985628;28;20497;-87
2022/03/26 06:44:51;;;;;;;19.25;10.23;;;;;;;13.24;32.79;101574.06;4946357;28;20038;-87
2022/03/26 06:47:17;;;;;;;21.92;10.30;;;;;;;13.68;31.63;101572.22;4946248;28;20042;-88
2022/03/26 06:49:43;;;;;;;20.27;10.50;;;;;;;14.41;31.36;101568.13;4963526;28;20089;-89
2022/03/26 06:52:08;;;;;;;23.80;10.13;;;;;;;15.40;29.49;101569.78;4946951;28;20043;-89
2022/03/26 06:54:34;;;;;;;26.38;9.93;;;;;;;16.08;29.15;101581.88;4978112;28;20531;-87
2022/03/26 06:57:00;;;;;;;18.30;9.43;;;;;;;16.21;29.03;101585.66;4977721;28;20034;-84
2022/03/26 06:59:25;;;;;;;18.23;10.10;;;;;;;15.20;29.71;101579.13;4960326;28;20092;-86
2022/03/26 07:01:51;;;;;;;25.10;10.00;;;;;;;15.73;29.69;101585.81;4967843;28;20498;-86
2022/03/26 07:04:17;;;;;;;22.52;9.73;;;;;;;15.71;29.72;101588.63;4966711;28;20081;-85
2022/03/26 07:06:43;;;;;;;21.02;9.93;;;;;;;16.49;28.61;101583.41;4964314;28;20039;-88
2022/03/26 07:09:08;;;;;;;17.35;8.60;;;;;;;17.03;28.21;101582.41;4948352;28;20454;-88
2022/03/26 07:11:34;;;;;;;17.15;9.02;;;;;;;17.97;26.90;101592.66;4964177;28;20040;-87
2022/03/26 07:13:59;;;;;;;14.20;8.73;;;;;;;17.61;27.18;101591.69;4947060;28;20385;-86
2022/03/26 07:16:25;;;;;;;31.30;9.73;;;;;;;17.37;27.60;101590.03;4957020;28;20062;-88
2022/03/26 07:18:50;;;;;;;16.85;9.27;;;;;;;17.89;27.58;101587.41;4966304;28;20497;-87
2022/03/26 07:21:16;;;;;;;20.92;9.00;;;;;;;17.41;27.81;101590.50;4966462;28;20027;-88
2022/03/26 07:23:41;;;;;;;17.63;9.52;;;;;;;16.12;29.63;101591.22;4946117;29;20458;-86
2022/03/26 07:26:07;;;;;;;20.73;9.57;;;;;;;15.99;29.58;101592.59;4963416;29;20027;-84
2022/03/26 07:28:32;;;;;;;13.63;9.48;;;;;;;15.69;29.99;101595.16;4969128;29;20063;-86
2022/03/26 07:30:58;;;;;;;15.85;9.40;;;;;;;15.94;29.58;101594.94;4952161;29;20039;-84
2022/03/26 07:33:24;;;;;;;27.33;10.90;;;;;;;15.83;32.68;101592.66;4968784;29;20062;-86
2022/03/26 07:35:49;;;;;;;30.75;11.90;;;;;;;15.08;35.92;101593.78;4950731;29;20447;-86
2022/03/26 07:38:15;;;;;;;23.73;11.02;;;;;;;15.65;35.32;101599.16;4968749;29;20414;-85
2022/03/26 07:40:40;;;;;;;33.60;12.27;;;;;;;15.19;36.16;101597.97;4966766;28;20392;-84
2022/03/26 07:43:07;;;;;;;34.28;12.48;;;;;;;16.12;34.36;101607.28;4967505;29;20038;-85
2022/03/26 07:45:33;;;;;;;28.55;12.02;;;;;;;16.00;34.38;101615.69;4967981;29;20035;-87
2022/03/26 07:47:59;;;;;;;24.90;11.90;;;;;;;15.25;34.56;101616.00;4948999;29;20404;-86
2022/03/26 07:50:25;;;;;;;19.90;12.43;;;;;;;15.39;34.45;101623.38;4968423;29;20075;-87
2022/03/26 07:52:51;;;;;;;24.17;12.10;;;;;;;15.72;33.73;101622.38;4950648;29;20130;-84
2022/03/26 07:55:17;;;;;;;25.45;12.73;;;;;;;16.25;33.06;101626.28;4933209;29;20035;-84
2022/03/26 07:57:43;;;;;;;20.50;12.38;;;;;;;15.97;33.44;101637.38;4951908;29;20408;-86
2022/03/26 08:00:09;;;;;;;21.05;11.52;;;;;;;16.45;32.68;101624.88;4969560;29;20031;-88
2022/03/26 08:02:43;;;;;;;23.85;12.13;;;;;;;16.37;32.11;101638.31;4964977;29;20066;-86
2022/03/26 08:05:09;;;;;;;22.23;12.95;;;;;;;16.80;31.49;101640.50;4960306;28;20023;-89
2022/03/26 08:07:34;;;;;;;27.20;12.93;;;;;;;17.23;30.80;101646.25;4971362;28;20102;-87
2022/03/26 08:10:00;;;;;;;20.40;12.10;;;;;;;17.59;30.15;101646.50;4960621;28;20471;-85
2022/03/26 08:12:26;;;;;;;23.98;13.07;;;;;;;17.64;30.15;101660.19;4974659;28;20030;-86
2022/03/26 08:14:51;;;;;;;23.60;12.48;;;;;;;17.14;30.74;101658.00;4973561;28;20574;-89
2022/03/26 08:17:17;;;;;;;24.20;12.43;;;;;;;17.68;29.46;101662.34;4963483;28;20103;-87
2022/03/26 08:19:43;;;;;;;24.85;13.05;;;;;;;17.43;30.04;101661.66;4970853;28;20086;-86
2022/03/26 08:22:08;;;;;;;26.88;11.75;;;;;;;17.44;30.42;101666.03;4975454;28;20027;-90
2022/03/26 08:24:37;;;;;;;20.33;12.35;;;;;;;17.16;29.89;101659.53;4970396;28;20394;-90
2022/03/26 08:27:05;;;;;;;21.20;11.93;;;;;;;18.14;28.30;101676.50;4970194;28;20035;-90
2022/03/26 08:29:31;;;;;;;22.17;12.38;;;;;;;17.69;28.98;101673.91;4982800;28;20410;-87
2022/03/26 08:31:57;;;;;;;23.35;12.68;;;;;;;17.76;29.26;101674.88;4966024;28;20054;-90
2022/03/26 08:34:23;;;;;;;27.17;13.30;;;;;;;17.88;28.50;101668.88;4943024;29;20122;-85
2022/03/26 08:36:48;;;;;;;29.80;15.43;;;;;;;17.82;28.37;101676.81;4940916;29;20113;-82
2022/03/26 08:39:14;;;;;;;25.45;14.27;;;;;;;18.39;28.28;101677.94;4957275;29;20035;-89
2022/03/26 08:41:40;;;;;;;26.13;13.80;;;;;;;18.36;28.66;101682.81;4956175;29;20039;-87
2022/03/26 08:44:06;;;;;;;23.60;12.98;;;;;;;18.36;28.75;101680.13;4956065;29;20041;-88
2022/03/26 08:46:31;;;;;;;20.08;12.75;;;;;;;18.30;29.01;101683.53;4958140;29;20035;-87
2022/03/26 08:48:58;;;;;;;32.90;13.18;;;;;;;19.36;28.35;101675.81;4956721;29;20041;-86
2022/03/26 08:51:24;;;;;;;20.17;12.70;;;;;;;18.91;28.03;101683.19;4957777;29;20578;-89
2022/03/26 08:53:49;;;;;;;26.13;13.00;;;;;;;18.72;28.06;101678.41;4962766;28;20208;-89
2022/03/26 08:56:15;;;;;;;28.83;12.73;;;;;;;18.88;28.83;101680.88;4943636;29;20483;-86
2022/03/26 08:58:40;;;;;;;26.20;13.40;;;;;;;19.44;27.80;101671.19;4960364;29;20032;-86
2022/03/26 09:01:07;;;;;;;22.23;12.10;;;;;;;19.74;27.10;101677.25;4963203;29;20035;-88
2022/03/26 09:03:37;;;;;;;18.77;11.98;;;;;;;19.47;27.18;101678.03;4963801;29;20027;-87
2022/03/26 09:06:06;;;;;;;22.98;13.10;;;;;;;19.12;27.84;101676.19;4930687;29;20042;-92
2022/03/26 09:08:33;;;;;;;23.60;13.52;;;;;;;19.56;27.42;101671.50;4945608;29;20126;-88
2022/03/26 09:10:59;;;;;;;19.15;12.65;;;;;;;19.80;26.62;101676.47;4943726;29;20031;-90
2022/03/26 09:13:25;;;;;;;22.35;12.82;;;;;;;20.21;25.64;101675.75;4961438;29;20042;-90
2022/03/26 09:15:51;;;;;;;20.95;11.57;;;;;;;20.44;25.04;101676.34;4962809;29;20487;-87
2022/03/26 09:18:27;;;;;;;23.85;13.07;;;;;;;20.22;25.58;101674.72;4949305;29;20046;-87
2022/03/26 09:21:00;;;;;;;19.90;12.40;;;;;;;21.05;25.30;101677.22;5034342;23;20035;-91
2022/03/26 09:23:46;;;;;;;26.63;12.48;;;;;;;21.06;24.71;101677.03;5178786;23;20046;-89
2022/03/26 09:26:19;;;;;;;21.88;12.80;;;;;;;21.25;23.83;101674.59;4969983;28;20047;-87
2022/03/26 09:28:50;;;;;;;23.23;12.90;;;;;;;21.28;24.13;101672.34;4947437;28;20031;-86
2022/03/26 09:31:16;;;;;;;23.73;12.47;;;;;;;21.91;23.27;101670.97;4981160;28;20030;-86
2022/03/26 09:33:45;;;;;;;20.55;12.68;;;;;;;21.29;24.32;101681.25;4984536;28;20026;-85
2022/03/26 09:36:11;;;;;;;29.90;12.70;;;;;;;22.24;22.68;101675.53;4967126;28;20042;-88
2022/03/26 09:38:39;;;;;;;22.00;12.73;;;;;;;22.01;23.06;101675.94;4986089;28;20106;-86
2022/03/26 09:41:26;;;;;;;25.52;11.95;;;;;;;22.07;23.26;101673.25;4982284;28;20062;-90
2022/03/26 09:43:59;;;;;;;21.55;12.02;;;;;;;22.07;22.90;101680.53;4961233;28;20559;-85
2022/03/26 09:46:34;;;;;;;14.07;9.47;;;;;;;22.09;22.62;101673.03;4976292;28;20042;-88
2022/03/26 09:49:15;;;;;;;26.45;13.20;;;;;;;21.98;21.52;101671.81;4962099;29;20311;-93
2022/03/26 09:51:43;;;;;;;21.48;12.80;;;;;;;22.21;21.25;101675.91;4966705;29;20061;-84
2022/03/26 09:54:13;;;;;;;23.38;12.25;;;;;;;22.53;21.61;101680.44;4968149;29;20050;-85
2022/03/26 09:56:39;;;;;;;26.85;12.73;;;;;;;22.86;21.63;101673.06;4969919;29;20054;-85
2022/03/26 09:59:05;;;;;;;24.52;12.90;;;;;;;22.36;22.34;101668.44;4950591;29;20029;-84
2022/03/26 10:01:36;;;;;;;18.83;12.23;;;;;;;22.21;22.05;101663.25;4952291;29;20066;-84
2022/03/26 10:04:22;;;;;;;21.98;11.85;;;;;;;23.00;20.00;101669.25;4950967;29;20055;-90
2022/03/26 10:06:55;;;;;;;22.58;11.43;;;;;;;22.97;20.26;101675.09;4969701;29;20019;-90
2022/03/26 10:09:32;;;;;;;25.08;13.00;;;;;;;22.59;19.67;101666.06;4937288;29;20571;-88
2022/03/26 10:12:21;;;;;;;22.25;12.68;;;;;;;23.01;19.13;101667.38;4950436;29;20039;-87
2022/03/26 10:15:10;;;;;;;31.88;12.73;;;;;;;23.06;18.87;101671.09;4945626;29;20051;-86
2022/03/26 10:17:39;;;;;;;25.05;12.93;;;;;;;23.29;18.45;101669.72;4951838;29;20050;-88
2022/03/26 10:20:26;;;;;;;24.67;13.27;;;;;;;23.42;18.65;101665.09;4951196;29;20079;-87
2022/03/26 10:22:55;;;;;;;23.00;13.35;;;;;;;22.87;19.71;101666.59;4968067;29;20557;-86
2022/03/26 10:25:26;;;;;;;24.75;13.10;;;;;;;22.85;19.31;101657.88;4952107;29;20149;-86
2022/03/26 10:27:55;;;;;;;22.00;13.33;;;;;;;23.83;19.00;101650.19;4963972;28;20127;-87
2022/03/26 10:33:30;;;;;;;22.88;13.48;;;;;;;24.42;20.03;101642.34;4968626;28;20051;-87
2022/03/26 10:36:02;;;;;;;23.60;14.10;;;;;;;24.48;19.98;101646.00;4968423;28;20030;-86
2022/03/26 10:38:39;;;;;;;24.77;14.50;;;;;;;25.05;19.65;101650.13;4958132;28;20043;-85
2022/03/26 10:41:07;;;;;;;27.83;15.43;;;;;;;24.98;19.17;101650.19;4963198;29;20495;-86
2022/03/26 10:43:34;;;;;;;30.27;15.25;;;;;;;24.76;19.24;101645.47;4962297;29;20098;-85
2022/03/26 10:46:07;;;;;;;25.67;15.73;;;;;;;24.86;18.99;101643.09;4965572;29;20039;-86
2022/03/26 10:48:36;;;;;;;28.83;15.57;;;;;;;24.76;19.17;101646.28;4947467;29;20483;-83
2022/03/26 10:51:09;;;;;;;30.38;17.20;;;;;;;24.49;19.12;101644.97;4943687;29;20035;-86
2022/03/26 10:53:49;;;;;;;27.02;17.98;;;;;;;24.16;18.40;101635.28;4964629;29;20079;-83
2022/03/26 10:56:16;;;;;;;30.50;19.35;;;;;;;23.67;18.31;101640.72;4949007;29;20491;-88
2022/03/26 10:58:43;;;;;;;30.17;18.42;;;;;;;23.59;18.37;101632.91;4966476;28;20027;-84
2022/03/26 11:01:09;;;;;;;30.80;18.50;;;;;;;23.52;19.24;101627.53;4957988;28;20035;-83
2022/03/26 11:03:38;;;;;;;36.67;20.15;;;;;;;25.12;17.35;101629.16;4982680;28;20042;-84
2022/03/26 11:06:10;;;;;;;30.75;18.75;;;;;;;25.07;17.98;101618.97;4976557;28;20491;-90
2022/03/26 11:08:37;;;;;;;26.85;18.38;;;;;;;25.92;17.52;101619.47;4973267;28;20422;-85
2022/03/26 11:11:09;;;;;;;31.13;20.45;;;;;;;25.81;17.77;101625.75;4970399;28;20535;-82
2022/03/26 11:13:48;;;;;;;31.80;19.33;;;;;;;25.61;18.28;101614.41;4951440;29;20039;-86
2022/03/26 11:16:45;;;;;;;34.83;19.45;;;;;;;25.69;18.07;101609.44;4963553;28;20035;-83
2022/03/26 11:19:25;;;;;;;27.05;19.33;;;;;;;26.11;17.85;101612.03;4958461;29;20400;-82
2022/03/26 11:22:06;;;;;;;34.75;20.58;;;;;;;26.12;18.26;101606.34;4963342;29;20042;-85
2022/03/26 11:24:57;;;;;;;39.38;22.60;;;;;;;26.21;16.90;101606.88;4959371;29;20043;-84
2022/03/26 11:27:37;;;;;;;42.80;23.95;;;;;;;26.78;16.43;101610.47;4965593;28;20054;-80
2022/03/26 11:30:16;;;;;;;37.90;24.33;;;;;;;27.03;16.30;101607.44;4954207;28;20534;-87
2022/03/26 11:32:44;;;;;;;37.22;23.13;;;;;;;26.37;18.05;101599.84;4966175;28;20411;-81
2022/03/26 11:35:17;;;;;;;39.17;24.42;;;;;;;26.98;16.75;101593.75;4966784;28;20041;-83
2022/03/26 11:37:52;;;;;;;33.20;22.13;;;;;;;28.08;18.47;101580.28;4980287;28;20461;-84
2022/03/26 11:40:39;;;;;;;46.10;25.88;;;;;;;27.23;16.41;101589.59;4948446;29;20035;-85
2022/03/26 11:43:15;;;;;;;45.28;25.30;;;;;;;27.14;16.28;101576.63;4959406;29;20062;-89
2022/03/26 11:51:27;;;;;;;46.88;26.92;;;;;;;27.73;16.23;101573.25;4966754;28;20039;-87
2022/03/26 11:54:04;;;;;;;41.90;27.90;;;;;;;28.21;16.21;101569.84;4947558;29;20110;-89
2022/03/26 11:56:31;;;;;;;44.22;27.85;;;;;;;28.32;15.94;101564.53;4946111;29;20177;-88
2022/03/26 11:59:07;;;;;;;46.58;28.52;;;;;;;27.04;16.54;101573.72;4955262;29;20058;-87